Arthur Brusco — WDC3449 — position and weather

sailwx.info

Track history (hours):
 
Tides and Currents Weather Stations Pressure Air Temp Water Temp Dewpoint Dewpoint Depression Visibility Wind Speed Wind Dir Waves Ship Positions

Arthur Brusco

Owner: Brusco Tug & Barge, Inc., Longview, WA. More information available from US FCC via Universal Licensing System and Coast Guard Vessel Documentation Center.

Last reported at 2014-Oct-21 10:30 UTC. Time now 2014-Oct-21 12:05 UTC.
Position N 37°59' W 122°27'.

Length 35 m; draft 4.2 m.

Type: Towing. MMSI: 367008020.

Date/timePositionNaut miles runAvg speedWind from/ knotsBaromVisibWave heightAir tempDewpointWater temp
2014-Oct-21 10:30N 37°59' W 122°27'0 0.0
2014-Oct-21 09:31N 37°59' W 122°27'0 0.0
2014-Oct-21 08:05N 37°59' W 122°27'0 0.2
2014-Oct-21 07:33N 37°59' W 122°27'6 5.9
2014-Oct-21 06:33N 37°53' W 122°25'4 4.4
2014-Oct-21 05:33N 37°49' W 122°27'7 6.8
2014-Oct-21 04:33N 37°45' W 122°34'6 5.7
2014-Oct-21 03:33N 37°49' W 122°29'5 5.3
2014-Oct-21 02:33N 37°54' W 122°26'8 7.7
2014-Oct-21 01:33N 38°01' W 122°23'6 6.1
2014-Oct-21 00:33N 38°03' W 122°15'0 0.1
2014-Oct-20 23:32N 38°03' W 122°16'0 0.0
2014-Oct-20 19:33N 38°03' W 122°16'0 0.0
2014-Oct-20 11:33N 38°03' W 122°16'1 1.0
2014-Oct-20 10:29N 38°03' W 122°17'4 3.6
2014-Oct-20 09:26N 38°02' W 122°22'5 5.3
2014-Oct-20 08:33N 37°59' W 122°26'0 0.0
2014-Oct-20 07:33N 37°59' W 122°26'0 0.1
2014-Oct-20 06:33N 37°59' W 122°26'0 0.0
2014-Oct-20 05:33N 37°59' W 122°26'0 0.0
2014-Oct-20 04:33N 37°59' W 122°26'0 0.0
2014-Oct-20 03:33N 37°59' W 122°26'0 0.0
2014-Oct-20 02:33N 37°59' W 122°26'0 0.0
2014-Oct-20 01:33N 37°59' W 122°26'0 0.1
2014-Oct-20 00:33N 37°59' W 122°26'5 4.5
2014-Oct-19 23:33N 37°54' W 122°27'5 5.5
2014-Oct-19 22:33N 37°49' W 122°28'6 6.1
2014-Oct-19 21:33N 37°47' W 122°35'7 6.7
2014-Oct-19 20:31N 37°43' W 122°42'9 9.1
2014-Oct-19 19:33N 37°38' W 122°51'13 2.2
2014-Oct-19 13:33N 37°37' W 123°08'7 7.5
2014-Oct-19 12:33N 37°37' W 122°59'10 7.2
2014-Oct-19 11:10N 37°42' W 122°48'7 6.7
2014-Oct-19 10:12N 37°45' W 122°41'4 6.9
2014-Oct-19 09:33N 37°47' W 122°35'8 7.6
2014-Oct-19 08:33N 37°49' W 122°26'2 1.6
2014-Oct-19 07:33N 37°49' W 122°24'0 0.0
2014-Oct-19 06:33N 37°49' W 122°24'0 0.0
2014-Oct-19 05:33N 37°49' W 122°24'0 0.0
2014-Oct-19 04:30N 37°49' W 122°24'0 0.1
2014-Oct-19 03:32N 37°49' W 122°24'0 0.0
2014-Oct-19 02:32N 37°49' W 122°24'0 0.0
2014-Oct-19 01:32N 37°49' W 122°24'0 0.0
2014-Oct-19 00:32N 37°49' W 122°24'0 0.0
2014-Oct-18 23:31N 37°49' W 122°24'0 0.0
2014-Oct-18 22:28N 37°49' W 122°24'0 0.0
2014-Oct-18 21:31N 37°49' W 122°24'0 0.0
2014-Oct-18 20:31N 37°49' W 122°24'0 0.0
2014-Oct-18 19:31N 37°49' W 122°24'0 0.0
2014-Oct-18 18:28N 37°49' W 122°24'0 0.0
2014-Oct-18 17:31N 37°49' W 122°24'0 0.0
2014-Oct-18 16:31N 37°49' W 122°24'0 0.0
2014-Oct-18 15:31N 37°49' W 122°24'0 0.0
2014-Oct-18 14:31N 37°49' W 122°24'0 0.0
2014-Oct-18 13:31N 37°49' W 122°24'0 0.0
2014-Oct-18 12:31N 37°49' W 122°24'0 0.0
2014-Oct-18 11:31N 37°49' W 122°24'0 0.0
2014-Oct-18 10:28N 37°49' W 122°24'0 0.0
2014-Oct-18 09:31N 37°49' W 122°24'0 0.0
2014-Oct-18 08:28N 37°49' W 122°24'0 0.1
2014-Oct-18 07:33N 37°49' W 122°24'0 0.1
2014-Oct-18 06:28N 37°49' W 122°24'0 0.0
2014-Oct-18 05:31N 37°49' W 122°24'0 0.0
2014-Oct-18 04:31N 37°49' W 122°24'0 0.0
2014-Oct-18 03:28N 37°49' W 122°24'0 0.0
2014-Oct-18 02:25N 37°49' W 122°24'0 0.0
2014-Oct-18 01:28N 37°49' W 122°24'0 0.0
2014-Oct-18 00:25N 37°49' W 122°24'0 0.0
2014-Oct-17 23:28N 37°49' W 122°24'0 0.0
2014-Oct-17 22:19N 37°49' W 122°24'0 0.0
2014-Oct-17 21:31N 37°49' W 122°24'0 0.0
2014-Oct-17 20:31N 37°49' W 122°24'0 0.0
2014-Oct-17 19:31N 37°49' W 122°24'0 0.0
2014-Oct-17 18:31N 37°49' W 122°24'0 0.0
2014-Oct-17 17:31N 37°49' W 122°24'0 0.0
2014-Oct-17 16:31N 37°49' W 122°24'0 0.0
2014-Oct-17 15:31N 37°49' W 122°24'0 0.0
2014-Oct-17 14:31N 37°49' W 122°24'0 0.0
2014-Oct-17 13:31N 37°49' W 122°24'0 0.0
2014-Oct-17 12:31N 37°49' W 122°24'0 0.0
2014-Oct-17 11:31N 37°49' W 122°24'0 0.0
2014-Oct-17 10:31N 37°49' W 122°24'0 0.0
2014-Oct-17 09:31N 37°49' W 122°24'0 0.0
2014-Oct-17 08:31N 37°49' W 122°24'0 0.1
2014-Oct-17 07:33N 37°49' W 122°24'0 0.0
2014-Oct-17 06:30N 37°49' W 122°24'0 0.0
2014-Oct-17 05:33N 37°49' W 122°24'0 0.0
2014-Oct-17 04:33N 37°49' W 122°24'0 0.1
2014-Oct-17 03:32N 37°49' W 122°24'0 0.0
2014-Oct-17 02:32N 37°49' W 122°24'0 0.0
2014-Oct-17 01:32N 37°49' W 122°24'0 0.0
2014-Oct-17 00:32N 37°49' W 122°24'3 2.7
2014-Oct-16 23:34N 37°49' W 122°28'8 7.6
2014-Oct-16 22:33N 37°46' W 122°37'6 6.2
2014-Oct-16 21:33N 37°43' W 122°43'9 9.2
2014-Oct-16 20:33N 37°38' W 122°53'10 9.7
2014-Oct-16 19:33N 37°32' W 123°03'9 9.2
2014-Oct-16 18:32N 37°34' W 123°15'9 8.8
2014-Oct-16 17:28N 37°37' W 123°26'7 3.5
2014-Oct-16 15:32N 37°38' W 123°17'6 6.5
2014-Oct-16 14:33N 37°37' W 123°09'7 6.9
2014-Oct-16 13:33N 37°37' W 123°01'7 6.8
2014-Oct-16 12:34N 37°40' W 122°53'7 6.7
2014-Oct-16 11:33N 37°43' W 122°45'6 6.3
2014-Oct-16 10:34N 37°46' W 122°38'7 6.5
2014-Oct-16 09:34N 37°48' W 122°31'5 5.0
2014-Oct-16 08:33N 37°49' W 122°24'0 0.2
2014-Oct-16 07:33N 37°49' W 122°24'0 0.0
2014-Oct-16 06:29N 37°49' W 122°24'0 0.1
2014-Oct-16 05:33N 37°49' W 122°24'0 0.0
2014-Oct-16 04:33N 37°49' W 122°24'0 0.0
2014-Oct-16 03:32N 37°49' W 122°24'0 0.0
2014-Oct-16 02:32N 37°49' W 122°24'0 0.0
2014-Oct-16 01:32N 37°49' W 122°24'0 0.0
2014-Oct-16 00:32N 37°49' W 122°24'0 0.0
2014-Oct-15 23:32N 37°49' W 122°24'0 0.0
2014-Oct-15 22:32N 37°49' W 122°24'0 0.0
2014-Oct-15 21:32N 37°49' W 122°24'0 0.0
2014-Oct-15 20:32N 37°49' W 122°24'0 0.0
2014-Oct-15 19:32N 37°49' W 122°24'0 0.2
2014-Oct-15 18:33N 37°49' W 122°24'4 4.4
2014-Oct-15 17:33N 37°49' W 122°19'0 0.0
2014-Oct-15 16:33N 37°49' W 122°19'0 0.0
2014-Oct-15 15:33N 37°49' W 122°19'0 0.0
2014-Oct-15 14:33N 37°49' W 122°19'5 4.6
2014-Oct-15 13:33N 37°52' W 122°24'8 7.9
2014-Oct-15 12:33N 37°60' W 122°24'9 8.7
2014-Oct-15 11:28N 38°04' W 122°14'  
Track history (hours):
 
Tides and Currents Weather Stations Pressure Air Temp Water Temp Dewpoint Dewpoint Depression Visibility Wind Speed Wind Dir Waves Ship Positions

Arthur Brusco

Owner: Brusco Tug & Barge, Inc., Longview, WA. More information available from US FCC via Universal Licensing System and Coast Guard Vessel Documentation Center.

Last reported at 2014-Oct-21 10:30 UTC. Time now 2014-Oct-21 12:05 UTC.
Position N 37°59' W 122°27'.

Length 35 m; draft 4.2 m.

Type: Towing. MMSI: 367008020.

Date/timePositionNaut miles runAvg speedWind from/ knotsBaromVisibWave heightAir tempDewpointWater temp
2014-Oct-21 10:30N 37°59' W 122°27'0 0.0
2014-Oct-21 09:31N 37°59' W 122°27'0 0.0
2014-Oct-21 08:05N 37°59' W 122°27'0 0.2
2014-Oct-21 07:33N 37°59' W 122°27'6 5.9
2014-Oct-21 06:33N 37°53' W 122°25'4 4.4
2014-Oct-21 05:33N 37°49' W 122°27'7 6.8
2014-Oct-21 04:33N 37°45' W 122°34'6 5.7
2014-Oct-21 03:33N 37°49' W 122°29'5 5.3
2014-Oct-21 02:33N 37°54' W 122°26'8 7.7
2014-Oct-21 01:33N 38°01' W 122°23'6 6.1
2014-Oct-21 00:33N 38°03' W 122°15'0 0.1
2014-Oct-20 23:32N 38°03' W 122°16'0 0.0
2014-Oct-20 19:33N 38°03' W 122°16'0 0.0
2014-Oct-20 11:33N 38°03' W 122°16'1 1.0
2014-Oct-20 10:29N 38°03' W 122°17'4 3.6
2014-Oct-20 09:26N 38°02' W 122°22'5 5.3
2014-Oct-20 08:33N 37°59' W 122°26'0 0.0
2014-Oct-20 07:33N 37°59' W 122°26'0 0.1
2014-Oct-20 06:33N 37°59' W 122°26'0 0.0
2014-Oct-20 05:33N 37°59' W 122°26'0 0.0
2014-Oct-20 04:33N 37°59' W 122°26'0 0.0
2014-Oct-20 03:33N 37°59' W 122°26'0 0.0
2014-Oct-20 02:33N 37°59' W 122°26'0 0.0
2014-Oct-20 01:33N 37°59' W 122°26'0 0.1
2014-Oct-20 00:33N 37°59' W 122°26'5 4.5
2014-Oct-19 23:33N 37°54' W 122°27'5 5.5
2014-Oct-19 22:33N 37°49' W 122°28'6 6.1
2014-Oct-19 21:33N 37°47' W 122°35'7 6.7
2014-Oct-19 20:31N 37°43' W 122°42'9 9.1
2014-Oct-19 19:33N 37°38' W 122°51'13 2.2
2014-Oct-19 13:33N 37°37' W 123°08'7 7.5
2014-Oct-19 12:33N 37°37' W 122°59'10 7.2
2014-Oct-19 11:10N 37°42' W 122°48'7 6.7
2014-Oct-19 10:12N 37°45' W 122°41'4 6.9
2014-Oct-19 09:33N 37°47' W 122°35'8 7.6
2014-Oct-19 08:33N 37°49' W 122°26'2 1.6
2014-Oct-19 07:33N 37°49' W 122°24'0 0.0
2014-Oct-19 06:33N 37°49' W 122°24'0 0.0
2014-Oct-19 05:33N 37°49' W 122°24'0 0.0
2014-Oct-19 04:30N 37°49' W 122°24'0 0.1
2014-Oct-19 03:32N 37°49' W 122°24'0 0.0
2014-Oct-19 02:32N 37°49' W 122°24'0 0.0
2014-Oct-19 01:32N 37°49' W 122°24'0 0.0
2014-Oct-19 00:32N 37°49' W 122°24'0 0.0
2014-Oct-18 23:31N 37°49' W 122°24'0 0.0
2014-Oct-18 22:28N 37°49' W 122°24'0 0.0
2014-Oct-18 21:31N 37°49' W 122°24'0 0.0
2014-Oct-18 20:31N 37°49' W 122°24'0 0.0
2014-Oct-18 19:31N 37°49' W 122°24'0 0.0
2014-Oct-18 18:28N 37°49' W 122°24'0 0.0
2014-Oct-18 17:31N 37°49' W 122°24'0 0.0
2014-Oct-18 16:31N 37°49' W 122°24'0 0.0
2014-Oct-18 15:31N 37°49' W 122°24'0 0.0
2014-Oct-18 14:31N 37°49' W 122°24'0 0.0
2014-Oct-18 13:31N 37°49' W 122°24'0 0.0
2014-Oct-18 12:31N 37°49' W 122°24'0 0.0
2014-Oct-18 11:31N 37°49' W 122°24'0 0.0
2014-Oct-18 10:28N 37°49' W 122°24'0 0.0
2014-Oct-18 09:31N 37°49' W 122°24'0 0.0
2014-Oct-18 08:28N 37°49' W 122°24'0 0.1
2014-Oct-18 07:33N 37°49' W 122°24'0 0.1
2014-Oct-18 06:28N 37°49' W 122°24'0 0.0
2014-Oct-18 05:31N 37°49' W 122°24'0 0.0
2014-Oct-18 04:31N 37°49' W 122°24'0 0.0
2014-Oct-18 03:28N 37°49' W 122°24'0 0.0
2014-Oct-18 02:25N 37°49' W 122°24'0 0.0
2014-Oct-18 01:28N 37°49' W 122°24'0 0.0
2014-Oct-18 00:25N 37°49' W 122°24'0 0.0
2014-Oct-17 23:28N 37°49' W 122°24'0 0.0
2014-Oct-17 22:19N 37°49' W 122°24'0 0.0
2014-Oct-17 21:31N 37°49' W 122°24'0 0.0
2014-Oct-17 20:31N 37°49' W 122°24'0 0.0
2014-Oct-17 19:31N 37°49' W 122°24'0 0.0
2014-Oct-17 18:31N 37°49' W 122°24'0 0.0
2014-Oct-17 17:31N 37°49' W 122°24'0 0.0
2014-Oct-17 16:31N 37°49' W 122°24'0 0.0
2014-Oct-17 15:31N 37°49' W 122°24'0 0.0
2014-Oct-17 14:31N 37°49' W 122°24'0 0.0
2014-Oct-17 13:31N 37°49' W 122°24'0 0.0
2014-Oct-17 12:31N 37°49' W 122°24'0 0.0
2014-Oct-17 11:31N 37°49' W 122°24'0 0.0
2014-Oct-17 10:31N 37°49' W 122°24'0 0.0
2014-Oct-17 09:31N 37°49' W 122°24'0 0.0
2014-Oct-17 08:31N 37°49' W 122°24'0 0.1
2014-Oct-17 07:33N 37°49' W 122°24'0 0.0
2014-Oct-17 06:30N 37°49' W 122°24'0 0.0
2014-Oct-17 05:33N 37°49' W 122°24'0 0.0
2014-Oct-17 04:33N 37°49' W 122°24'0 0.1
2014-Oct-17 03:32N 37°49' W 122°24'0 0.0
2014-Oct-17 02:32N 37°49' W 122°24'0 0.0
2014-Oct-17 01:32N 37°49' W 122°24'0 0.0
2014-Oct-17 00:32N 37°49' W 122°24'3 2.7
2014-Oct-16 23:34N 37°49' W 122°28'8 7.6
2014-Oct-16 22:33N 37°46' W 122°37'6 6.2
2014-Oct-16 21:33N 37°43' W 122°43'9 9.2
2014-Oct-16 20:33N 37°38' W 122°53'10 9.7
2014-Oct-16 19:33N 37°32' W 123°03'9 9.2
2014-Oct-16 18:32N 37°34' W 123°15'9 8.8
2014-Oct-16 17:28N 37°37' W 123°26'7 3.5
2014-Oct-16 15:32N 37°38' W 123°17'6 6.5
2014-Oct-16 14:33N 37°37' W 123°09'7 6.9
2014-Oct-16 13:33N 37°37' W 123°01'7 6.8
2014-Oct-16 12:34N 37°40' W 122°53'7 6.7
2014-Oct-16 11:33N 37°43' W 122°45'6 6.3
2014-Oct-16 10:34N 37°46' W 122°38'7 6.5
2014-Oct-16 09:34N 37°48' W 122°31'5 5.0
2014-Oct-16 08:33N 37°49' W 122°24'0 0.2
2014-Oct-16 07:33N 37°49' W 122°24'0 0.0
2014-Oct-16 06:29N 37°49' W 122°24'0 0.1
2014-Oct-16 05:33N 37°49' W 122°24'0 0.0
2014-Oct-16 04:33N 37°49' W 122°24'0 0.0
2014-Oct-16 03:32N 37°49' W 122°24'0 0.0
2014-Oct-16 02:32N 37°49' W 122°24'0 0.0
2014-Oct-16 01:32N 37°49' W 122°24'0 0.0
2014-Oct-16 00:32N 37°49' W 122°24'0 0.0
2014-Oct-15 23:32N 37°49' W 122°24'0 0.0
2014-Oct-15 22:32N 37°49' W 122°24'0 0.0
2014-Oct-15 21:32N 37°49' W 122°24'0 0.0
2014-Oct-15 20:32N 37°49' W 122°24'0 0.0
2014-Oct-15 19:32N 37°49' W 122°24'0 0.2
2014-Oct-15 18:33N 37°49' W 122°24'4 4.4
2014-Oct-15 17:33N 37°49' W 122°19'0 0.0
2014-Oct-15 16:33N 37°49' W 122°19'0 0.0
2014-Oct-15 15:33N 37°49' W 122°19'0 0.0
2014-Oct-15 14:33N 37°49' W 122°19'5 4.6
2014-Oct-15 13:33N 37°52' W 122°24'8 7.9
2014-Oct-15 12:33N 37°60' W 122°24'9 8.7
2014-Oct-15 11:28N 38°04' W 122°14'  

Dump ship's entire track history